sensor_id;sensor_type;location;lat;lon;timestamp;pressure;altitude;pressure_sealevel;temperature;humidity
56831;BME280;42713;42.676;23.352;2023-05-20T00:00:16;95079.22;;;14.94;70.94
56831;BME280;42713;42.676;23.352;2023-05-20T00:02:54;95080.81;;;14.96;70.58
56831;BME280;42713;42.676;23.352;2023-05-20T00:05:19;95079.75;;;14.97;70.80
56831;BME280;42713;42.676;23.352;2023-05-20T00:07:45;95079.75;;;14.97;69.96
56831;BME280;42713;42.676;23.352;2023-05-20T00:10:11;95075.25;;;14.92;70.16
56831;BME280;42713;42.676;23.352;2023-05-20T00:12:37;95082.66;;;14.95;69.90
56831;BME280;42713;42.676;23.352;2023-05-20T00:15:04;95075.03;;;14.93;69.88
56831;BME280;42713;42.676;23.352;2023-05-20T00:17:30;95086.09;;;14.96;69.93
56831;BME280;42713;42.676;23.352;2023-05-20T00:19:55;95080.56;;;14.97;69.79
56831;BME280;42713;42.676;23.352;2023-05-20T00:22:21;95080.81;;;14.90;69.07
56831;BME280;42713;42.676;23.352;2023-05-20T00:24:47;95078.41;;;14.84;69.38
56831;BME280;42713;42.676;23.352;2023-05-20T00:27:12;95072.34;;;14.78;70.43
56831;BME280;42713;42.676;23.352;2023-05-20T00:29:38;95072.31;;;14.68;70.79
56831;BME280;42713;42.676;23.352;2023-05-20T00:32:04;95067.84;;;14.68;71.00
56831;BME280;42713;42.676;23.352;2023-05-20T00:34:29;95062.81;;;14.67;71.00
56831;BME280;42713;42.676;23.352;2023-05-20T00:36:55;95058.81;;;14.59;70.13
56831;BME280;42713;42.676;23.352;2023-05-20T00:39:20;95066.69;;;14.48;70.52
56831;BME280;42713;42.676;23.352;2023-05-20T00:41:45;95057.16;;;14.37;70.67
56831;BME280;42713;42.676;23.352;2023-05-20T00:44:11;95057.38;;;14.36;71.88
56831;BME280;42713;42.676;23.352;2023-05-20T00:46:37;95064.19;;;14.26;72.26
56831;BME280;42713;42.676;23.352;2023-05-20T00:49:02;95049.47;;;14.25;72.26
56831;BME280;42713;42.676;23.352;2023-05-20T00:51:28;95050.75;;;14.23;72.15
56831;BME280;42713;42.676;23.352;2023-05-20T00:53:55;95053.94;;;14.25;72.61
56831;BME280;42713;42.676;23.352;2023-05-20T00:56:21;95051.28;;;14.25;71.87
56831;BME280;42713;42.676;23.352;2023-05-20T00:58:48;95044.69;;;14.22;71.46
56831;BME280;42713;42.676;23.352;2023-05-20T01:01:14;95049.69;;;14.19;71.05
56831;BME280;42713;42.676;23.352;2023-05-20T01:03:39;95050.69;;;14.12;71.41
56831;BME280;42713;42.676;23.352;2023-05-20T01:06:05;95056.25;;;14.11;71.15
56831;BME280;42713;42.676;23.352;2023-05-20T01:08:30;95036.72;;;14.07;70.77
56831;BME280;42713;42.676;23.352;2023-05-20T01:11:02;95051.47;;;14.08;70.92
56831;BME280;42713;42.676;23.352;2023-05-20T01:13:34;95055.47;;;14.10;70.88
56831;BME280;42713;42.676;23.352;2023-05-20T01:16:03;95059.91;;;14.10;71.74
56831;BME280;42713;42.676;23.352;2023-05-20T01:18:29;95062.28;;;14.06;71.52
56831;BME280;42713;42.676;23.352;2023-05-20T01:20:58;95055.63;;;13.98;71.64
56831;BME280;42713;42.676;23.352;2023-05-20T01:23:46;95056.44;;;13.99;71.96
56831;BME280;42713;42.676;23.352;2023-05-20T01:26:11;95044.28;;;13.93;72.70
56831;BME280;42713;42.676;23.352;2023-05-20T01:28:38;95050.59;;;13.92;72.37
56831;BME280;42713;42.676;23.352;2023-05-20T01:31:05;95055.56;;;13.88;72.66
56831;BME280;42713;42.676;23.352;2023-05-20T01:33:35;95057.44;;;13.88;72.33
56831;BME280;42713;42.676;23.352;2023-05-20T01:36:02;95051.41;;;13.92;71.13
56831;BME280;42713;42.676;23.352;2023-05-20T01:38:28;95057.72;;;13.91;71.40
56831;BME280;42713;42.676;23.352;2023-05-20T01:40:56;95051.13;;;13.89;71.59
56831;BME280;42713;42.676;23.352;2023-05-20T01:43:23;95061.13;;;13.92;71.98
56831;BME280;42713;42.676;23.352;2023-05-20T01:45:48;95050.31;;;13.88;71.73
56831;BME280;42713;42.676;23.352;2023-05-20T01:48:14;95051.88;;;13.84;71.78
56831;BME280;42713;42.676;23.352;2023-05-20T01:50:41;95041.56;;;13.77;72.71
56831;BME280;42713;42.676;23.352;2023-05-20T01:53:06;95056.81;;;13.75;72.63
56831;BME280;42713;42.676;23.352;2023-05-20T01:55:34;95041.50;;;13.67;72.33
56831;BME280;42713;42.676;23.352;2023-05-20T01:58:01;95046.47;;;13.63;72.74
56831;BME280;42713;42.676;23.352;2023-05-20T02:00:26;95041.97;;;13.59;73.21
56831;BME280;42713;42.676;23.352;2023-05-20T02:02:51;95051.19;;;13.61;73.72
56831;BME280;42713;42.676;23.352;2023-05-20T02:05:17;95062.00;;;13.60;72.51
56831;BME280;42713;42.676;23.352;2023-05-20T02:07:42;95051.41;;;13.54;73.04
56831;BME280;42713;42.676;23.352;2023-05-20T02:10:08;95041.09;;;13.48;73.51
56831;BME280;42713;42.676;23.352;2023-05-20T02:12:34;95040.59;;;13.51;73.85
56831;BME280;42713;42.676;23.352;2023-05-20T02:14:59;95041.94;;;13.53;73.37
56831;BME280;42713;42.676;23.352;2023-05-20T02:17:25;95043.53;;;13.54;72.92
56831;BME280;42713;42.676;23.352;2023-05-20T02:19:51;95048.50;;;13.51;72.86
56831;BME280;42713;42.676;23.352;2023-05-20T02:22:16;95041.09;;;13.48;72.74
56831;BME280;42713;42.676;23.352;2023-05-20T02:24:42;95041.56;;;13.39;73.43
56831;BME280;42713;42.676;23.352;2023-05-20T02:27:08;95034.69;;;13.38;72.61
56831;BME280;42713;42.676;23.352;2023-05-20T02:29:33;95036.25;;;13.34;72.38
56831;BME280;42713;42.676;23.352;2023-05-20T02:31:59;95031.75;;;13.30;73.25
56831;BME280;42713;42.676;23.352;2023-05-20T02:34:25;95021.16;;;13.24;74.12
56831;BME280;42713;42.676;23.352;2023-05-20T02:36:51;95028.78;;;13.21;73.36
56831;BME280;42713;42.676;23.352;2023-05-20T02:39:17;95036.38;;;13.17;72.99
56831;BME280;42713;42.676;23.352;2023-05-20T02:41:42;95028.97;;;13.14;72.64
56831;BME280;42713;42.676;23.352;2023-05-20T02:44:08;95032.34;;;13.10;72.68
56831;BME280;42713;42.676;23.352;2023-05-20T02:46:33;95030.47;;;13.05;72.55
56831;BME280;42713;42.676;23.352;2023-05-20T02:48:59;95030.69;;;12.98;73.27
56831;BME280;42713;42.676;23.352;2023-05-20T02:51:24;95032.25;;;12.99;72.94
56831;BME280;42713;42.676;23.352;2023-05-20T02:53:50;95029.41;;;13.01;73.73
56831;BME280;42713;42.676;23.352;2023-05-20T02:56:15;95033.31;;;12.98;72.95
56831;BME280;42713;42.676;23.352;2023-05-20T02:58:45;95029.34;;;12.96;72.38
56831;BME280;42713;42.676;23.352;2023-05-20T03:01:11;95031.97;;;12.96;72.66
56831;BME280;42713;42.676;23.352;2023-05-20T03:03:36;95032.25;;;12.99;73.35
56831;BME280;42713;42.676;23.352;2023-05-20T03:06:02;95037.28;;;13.01;73.17
56831;BME280;42713;42.676;23.352;2023-05-20T03:08:27;95043.81;;;12.98;73.21
56831;BME280;42713;42.676;23.352;2023-05-20T03:10:53;95047.25;;;12.99;73.03
56831;BME280;42713;42.676;23.352;2023-05-20T03:13:19;95045.38;;;12.94;73.54
56831;BME280;42713;42.676;23.352;2023-05-20T03:15:44;95055.09;;;12.93;73.13
56831;BME280;42713;42.676;23.352;2023-05-20T03:18:10;95058.47;;;12.89;73.21
56831;BME280;42713;42.676;23.352;2023-05-20T03:20:36;95057.38;;;12.85;73.58
56831;BME280;42713;42.676;23.352;2023-05-20T03:23:03;95057.31;;;12.80;73.25
56831;BME280;42713;42.676;23.352;2023-05-20T03:25:28;95055.69;;;12.73;74.30
56831;BME280;42713;42.676;23.352;2023-05-20T03:27:54;95055.88;;;12.67;74.59
56831;BME280;42713;42.676;23.352;2023-05-20T03:30:19;95055.56;;;12.63;74.23
56831;BME280;42713;42.676;23.352;2023-05-20T03:32:45;95056.06;;;12.60;75.22
56831;BME280;42713;42.676;23.352;2023-05-20T03:35:11;95059.72;;;12.59;75.68
56831;BME280;42713;42.676;23.352;2023-05-20T03:37:37;95062.34;;;12.59;75.60
56831;BME280;42713;42.676;23.352;2023-05-20T03:40:02;95068.41;;;12.59;76.71
56831;BME280;42713;42.676;23.352;2023-05-20T03:42:31;95067.13;;;12.62;76.75
56831;BME280;42713;42.676;23.352;2023-05-20T03:44:57;95069.56;;;12.69;76.09
56831;BME280;42713;42.676;23.352;2023-05-20T03:47:24;95074.88;;;12.74;75.97
56831;BME280;42713;42.676;23.352;2023-05-20T03:49:50;95071.75;;;12.77;76.38
56831;BME280;42713;42.676;23.352;2023-05-20T03:52:15;95068.38;;;12.82;76.53
56831;BME280;42713;42.676;23.352;2023-05-20T03:54:41;95071.06;;;12.87;76.66
56831;BME280;42713;42.676;23.352;2023-05-20T03:57:06;95080.59;;;12.93;76.24
56831;BME280;42713;42.676;23.352;2023-05-20T03:59:32;95079.28;;;12.96;75.94
56831;BME280;42713;42.676;23.352;2023-05-20T04:01:57;95086.16;;;12.97;75.64
56831;BME280;42713;42.676;23.352;2023-05-20T04:04:23;95087.47;;;12.99;75.50
56831;BME280;42713;42.676;23.352;2023-05-20T04:06:48;95083.06;;;13.05;75.37
56831;BME280;42713;42.676;23.352;2023-05-20T04:09:14;95084.94;;;13.10;75.08
56831;BME280;42713;42.676;23.352;2023-05-20T04:11:39;95086.31;;;13.12;75.64
56831;BME280;42713;42.676;23.352;2023-05-20T04:14:05;95091.88;;;13.16;75.77
56831;BME280;42713;42.676;23.352;2023-05-20T04:16:30;95094.50;;;13.16;75.51
56831;BME280;42713;42.676;23.352;2023-05-20T04:18:56;95083.97;;;13.16;75.80
56831;BME280;42713;42.676;23.352;2023-05-20T04:21:23;95089.25;;;13.21;75.73
56831;BME280;42713;42.676;23.352;2023-05-20T04:23:49;95092.19;;;13.24;74.78
56831;BME280;42713;42.676;23.352;2023-05-20T04:26:14;95087.47;;;13.27;75.23
56831;BME280;42713;42.676;23.352;2023-05-20T04:28:39;95090.66;;;13.29;73.38
56831;BME280;42713;42.676;23.352;2023-05-20T04:31:06;95085.13;;;13.30;73.77
56831;BME280;42713;42.676;23.352;2023-05-20T04:33:32;95086.19;;;13.29;73.06
56831;BME280;42713;42.676;23.352;2023-05-20T04:36:02;95087.28;;;13.33;72.84
56831;BME280;42713;42.676;23.352;2023-05-20T04:38:30;95085.97;;;13.36;73.12
56831;BME280;42713;42.676;23.352;2023-05-20T04:40:57;95094.19;;;13.39;72.65
56831;BME280;42713;42.676;23.352;2023-05-20T04:43:27;95094.00;;;13.46;72.45
56831;BME280;42713;42.676;23.352;2023-05-20T04:45:57;95106.38;;;13.51;72.22
56831;BME280;42713;42.676;23.352;2023-05-20T04:48:24;95107.50;;;13.55;72.40
56831;BME280;42713;42.676;23.352;2023-05-20T04:50:49;95096.69;;;13.57;72.81
56831;BME280;42713;42.676;23.352;2023-05-20T04:53:16;95100.16;;;13.62;73.01
56831;BME280;42713;42.676;23.352;2023-05-20T04:55:48;95101.25;;;13.66;72.06
56831;BME280;42713;42.676;23.352;2023-05-20T04:58:18;95104.41;;;13.68;71.59
56831;BME280;42713;42.676;23.352;2023-05-20T05:00:44;95101.03;;;13.73;71.92
56831;BME280;42713;42.676;23.352;2023-05-20T05:03:10;95097.91;;;13.76;71.68
56831;BME280;42713;42.676;23.352;2023-05-20T05:05:39;95091.88;;;13.81;71.75
56831;BME280;42713;42.676;23.352;2023-05-20T05:08:05;95099.28;;;13.84;71.34
56831;BME280;42713;42.676;23.352;2023-05-20T05:10:31;95098.75;;;13.87;72.18
56831;BME280;42713;42.676;23.352;2023-05-20T05:12:57;95106.69;;;13.92;71.36
56831;BME280;42713;42.676;23.352;2023-05-20T05:15:24;95096.72;;;13.94;71.26
56831;BME280;42713;42.676;23.352;2023-05-20T05:17:50;95107.81;;;14.01;70.95
56831;BME280;42713;42.676;23.352;2023-05-20T05:20:16;95102.81;;;14.05;70.70
56831;BME280;42713;42.676;23.352;2023-05-20T05:22:42;95103.09;;;14.09;70.09
56831;BME280;42713;42.676;23.352;2023-05-20T05:25:09;95101.78;;;14.11;68.80
56831;BME280;42713;42.676;23.352;2023-05-20T05:27:34;95097.34;;;14.17;68.95
56831;BME280;42713;42.676;23.352;2023-05-20T05:30:04;95089.50;;;14.22;69.24
56831;BME280;42713;42.676;23.352;2023-05-20T05:32:30;95089.50;;;14.27;69.00
56831;BME280;42713;42.676;23.352;2023-05-20T05:34:56;95090.09;;;14.35;68.62
56831;BME280;42713;42.676;23.352;2023-05-20T05:37:22;95084.28;;;14.38;68.96
56831;BME280;42713;42.676;23.352;2023-05-20T05:39:47;95087.19;;;14.41;68.51
56831;BME280;42713;42.676;23.352;2023-05-20T05:42:13;95086.72;;;14.50;68.59
56831;BME280;42713;42.676;23.352;2023-05-20T05:44:38;95090.16;;;14.55;68.91
56831;BME280;42713;42.676;23.352;2023-05-20T05:47:04;95085.69;;;14.61;68.50
56831;BME280;42713;42.676;23.352;2023-05-20T05:49:31;95098.66;;;14.68;68.29
56831;BME280;42713;42.676;23.352;2023-05-20T05:51:56;95091.28;;;14.75;68.22
56831;BME280;42713;42.676;23.352;2023-05-20T05:54:21;95098.19;;;14.81;68.15
56831;BME280;42713;42.676;23.352;2023-05-20T05:56:47;95095.56;;;14.86;67.93
56831;BME280;42713;42.676;23.352;2023-05-20T05:59:14;95090.31;;;14.91;67.54
56831;BME280;42713;42.676;23.352;2023-05-20T06:01:40;95080.81;;;14.96;67.90
56831;BME280;42713;42.676;23.352;2023-05-20T06:04:05;95083.19;;;15.02;68.13
56831;BME280;42713;42.676;23.352;2023-05-20T06:06:31;95082.69;;;15.05;67.63
56831;BME280;42713;42.676;23.352;2023-05-20T06:08:56;95071.06;;;15.12;66.99
56831;BME280;42713;42.676;23.352;2023-05-20T06:11:22;95072.94;;;15.16;66.50
56831;BME280;42713;42.676;23.352;2023-05-20T06:13:48;95070.31;;;15.21;66.89
56831;BME280;42713;42.676;23.352;2023-05-20T06:16:14;95068.47;;;15.27;66.23
56831;BME280;42713;42.676;23.352;2023-05-20T06:18:41;95070.31;;;15.32;65.30
56831;BME280;42713;42.676;23.352;2023-05-20T06:21:06;95066.88;;;15.36;65.06
56831;BME280;42713;42.676;23.352;2023-05-20T06:23:31;95070.56;;;15.40;65.20
56831;BME280;42713;42.676;23.352;2023-05-20T06:25:58;95074.81;;;15.47;66.03
56831;BME280;42713;42.676;23.352;2023-05-20T06:28:24;95071.63;;;15.55;66.49
56831;BME280;42713;42.676;23.352;2023-05-20T06:30:49;95072.44;;;15.61;65.14
56831;BME280;42713;42.676;23.352;2023-05-20T06:33:17;95061.31;;;15.64;64.14
56831;BME280;42713;42.676;23.352;2023-05-20T06:35:44;95061.59;;;15.72;64.47
56831;BME280;42713;42.676;23.352;2023-05-20T06:38:10;95057.09;;;15.78;63.94
56831;BME280;42713;42.676;23.352;2023-05-20T06:40:35;95051.56;;;15.85;63.74
56831;BME280;42713;42.676;23.352;2023-05-20T06:43:01;95047.84;;;15.91;61.89
56831;BME280;42713;42.676;23.352;2023-05-20T06:45:26;95044.16;;;15.92;60.69
56831;BME280;42713;42.676;23.352;2023-05-20T06:47:52;95043.59;;;16.00;61.63
56831;BME280;42713;42.676;23.352;2023-05-20T06:50:18;95047.56;;;16.08;60.77
56831;BME280;42713;42.676;23.352;2023-05-20T06:52:44;95048.06;;;16.15;61.13
56831;BME280;42713;42.676;23.352;2023-05-20T06:55:10;95045.41;;;16.21;61.43
56831;BME280;42713;42.676;23.352;2023-05-20T06:57:35;95046.72;;;16.23;62.10
56831;BME280;42713;42.676;23.352;2023-05-20T07:00:02;95053.03;;;16.32;62.63
56831;BME280;42713;42.676;23.352;2023-05-20T07:02:28;95054.31;;;16.40;62.02
56831;BME280;42713;42.676;23.352;2023-05-20T07:04:53;95047.13;;;16.46;62.22
56831;BME280;42713;42.676;23.352;2023-05-20T07:07:19;95051.34;;;16.52;61.45
56831;BME280;42713;42.676;23.352;2023-05-20T07:09:44;95049.47;;;16.58;60.08
56831;BME280;42713;42.676;23.352;2023-05-20T07:12:09;95044.16;;;16.63;61.51
56831;BME280;42713;42.676;23.352;2023-05-20T07:14:35;95035.69;;;16.66;60.53
56831;BME280;42713;42.676;23.352;2023-05-20T07:17:00;95034.88;;;16.71;60.54
56831;BME280;42713;42.676;23.352;2023-05-20T07:19:26;95039.56;;;16.79;60.41
56831;BME280;42713;42.676;23.352;2023-05-20T07:21:51;95044.56;;;16.86;59.71
56831;BME280;42713;42.676;23.352;2023-05-20T07:24:17;95033.94;;;16.91;59.17
56831;BME280;42713;42.676;23.352;2023-05-20T07:26:42;95033.44;;;16.94;59.53
56831;BME280;42713;42.676;23.352;2023-05-20T07:29:08;95032.06;;;17.02;58.70
56831;BME280;42713;42.676;23.352;2023-05-20T07:31:34;95025.41;;;17.09;59.04
56831;BME280;42713;42.676;23.352;2023-05-20T07:34:00;95032.78;;;17.13;57.03
56831;BME280;42713;42.676;23.352;2023-05-20T07:36:26;95036.19;;;17.18;58.45
56831;BME280;42713;42.676;23.352;2023-05-20T07:38:52;95041.41;;;17.29;58.05
56831;BME280;42713;42.676;23.352;2023-05-20T07:41:18;95045.63;;;17.30;57.43
56831;BME280;42713;42.676;23.352;2023-05-20T07:43:45;95038.38;;;17.40;56.75
56831;BME280;42713;42.676;23.352;2023-05-20T07:46:11;95036.50;;;17.46;57.64
56831;BME280;42713;42.676;23.352;2023-05-20T07:48:37;95037.25;;;17.52;56.85
56831;BME280;42713;42.676;23.352;2023-05-20T07:51:02;95030.88;;;17.53;55.63
56831;BME280;42713;42.676;23.352;2023-05-20T07:53:28;95031.91;;;17.57;55.08
56831;BME280;42713;42.676;23.352;2023-05-20T07:55:53;95039.50;;;17.64;55.11
56831;BME280;42713;42.676;23.352;2023-05-20T07:58:18;95041.38;;;17.63;55.03
56831;BME280;42713;42.676;23.352;2023-05-20T08:00:44;95036.03;;;17.68;55.23
56831;BME280;42713;42.676;23.352;2023-05-20T08:03:10;95030.97;;;17.72;52.79
56831;BME280;42713;42.676;23.352;2023-05-20T08:05:36;95026.69;;;17.76;53.54
56831;BME280;42713;42.676;23.352;2023-05-20T08:08:02;95034.38;;;17.78;54.01
56831;BME280;42713;42.676;23.352;2023-05-20T08:10:28;95032.97;;;17.85;54.28
56831;BME280;42713;42.676;23.352;2023-05-20T08:12:53;95034.59;;;17.81;52.18
56831;BME280;42713;42.676;23.352;2023-05-20T08:15:19;95031.97;;;17.81;52.41
56831;BME280;42713;42.676;23.352;2023-05-20T08:17:44;95022.09;;;17.87;52.92
56831;BME280;42713;42.676;23.352;2023-05-20T08:20:10;95024.16;;;17.90;54.81
56831;BME280;42713;42.676;23.352;2023-05-20T08:22:37;95020.19;;;17.93;54.74
56831;BME280;42713;42.676;23.352;2023-05-20T08:25:03;95007.41;;;17.95;55.29
56831;BME280;42713;42.676;23.352;2023-05-20T08:27:29;95016.94;;;17.96;54.86
56831;BME280;42713;42.676;23.352;2023-05-20T08:29:54;95016.94;;;18.01;54.82
56831;BME280;42713;42.676;23.352;2023-05-20T08:32:20;95016.31;;;18.09;55.32
56831;BME280;42713;42.676;23.352;2023-05-20T08:34:46;95017.81;;;18.15;54.94
56831;BME280;42713;42.676;23.352;2023-05-20T08:37:13;95015.63;;;18.23;54.92
56831;BME280;42713;42.676;23.352;2023-05-20T08:39:39;95010.81;;;18.25;53.03
56831;BME280;42713;42.676;23.352;2023-05-20T08:42:05;95017.41;;;18.27;52.62
56831;BME280;42713;42.676;23.352;2023-05-20T08:44:32;95013.94;;;18.32;53.69
56831;BME280;42713;42.676;23.352;2023-05-20T08:46:58;95014.44;;;18.34;54.09
56831;BME280;42713;42.676;23.352;2023-05-20T08:49:24;95021.19;;;18.45;53.96
56831;BME280;42713;42.676;23.352;2023-05-20T08:51:49;95013.91;;;18.56;53.15
56831;BME280;42713;42.676;23.352;2023-05-20T08:54:15;95026.03;;;18.62;52.89
56831;BME280;42713;42.676;23.352;2023-05-20T08:56:42;95024.00;;;18.73;52.75
56831;BME280;42713;42.676;23.352;2023-05-20T08:59:08;95026.25;;;18.85;53.58
56831;BME280;42713;42.676;23.352;2023-05-20T09:01:40;95013.69;;;18.91;53.43
56831;BME280;42713;42.676;23.352;2023-05-20T09:04:07;95002.78;;;18.92;52.99
56831;BME280;42713;42.676;23.352;2023-05-20T09:06:44;95000.06;;;18.97;53.39
56831;BME280;42713;42.676;23.352;2023-05-20T09:09:13;95001.50;;;19.09;54.14
56831;BME280;42713;42.676;23.352;2023-05-20T09:11:40;94999.75;;;19.18;52.36
56831;BME280;42713;42.676;23.352;2023-05-20T09:14:06;94996.44;;;19.26;51.25
56831;BME280;42713;42.676;23.352;2023-05-20T09:16:32;95004.03;;;19.33;50.72
56831;BME280;42713;42.676;23.352;2023-05-20T09:18:57;94988.50;;;19.40;51.78
56831;BME280;42713;42.676;23.352;2023-05-20T09:21:27;94990.03;;;19.47;50.61
56831;BME280;42713;42.676;23.352;2023-05-20T09:23:53;94987.78;;;19.54;51.47
56831;BME280;42713;42.676;23.352;2023-05-20T09:26:22;94986.00;;;19.63;50.86
56831;BME280;42713;42.676;23.352;2023-05-20T09:28:48;94986.13;;;19.72;50.76
56831;BME280;42713;42.676;23.352;2023-05-20T09:31:13;94984.16;;;19.78;51.14
56831;BME280;42713;42.676;23.352;2023-05-20T09:33:39;94983.75;;;19.84;52.00
56831;BME280;42713;42.676;23.352;2023-05-20T09:36:09;94979.38;;;19.94;51.68
56831;BME280;42713;42.676;23.352;2023-05-20T09:38:38;94980.34;;;19.98;51.45
56831;BME280;42713;42.676;23.352;2023-05-20T09:41:10;94973.66;;;20.00;51.85
56831;BME280;42713;42.676;23.352;2023-05-20T09:43:38;94967.19;;;20.06;52.06
56831;BME280;42713;42.676;23.352;2023-05-20T09:46:03;94963.63;;;20.11;51.94
56831;BME280;42713;42.676;23.352;2023-05-20T09:48:29;94968.06;;;20.16;52.29
56831;BME280;42713;42.676;23.352;2023-05-20T09:50:56;94955.72;;;20.20;51.09
56831;BME280;42713;42.676;23.352;2023-05-20T09:53:25;94958.09;;;20.21;50.26
56831;BME280;42713;42.676;23.352;2023-05-20T09:55:53;94960.25;;;20.19;51.16
56831;BME280;42713;42.676;23.352;2023-05-20T09:58:19;94950.03;;;20.13;50.34
56831;BME280;42713;42.676;23.352;2023-05-20T10:00:45;94959.56;;;20.14;50.25
56831;BME280;42713;42.676;23.352;2023-05-20T10:03:11;94951.28;;;20.15;50.29
56831;BME280;42713;42.676;23.352;2023-05-20T10:05:42;94945.88;;;20.20;50.56
56831;BME280;42713;42.676;23.352;2023-05-20T10:08:26;94947.16;;;20.23;50.00
56831;BME280;42713;42.676;23.352;2023-05-20T10:11:02;94934.22;;;20.30;49.78
56831;BME280;42713;42.676;23.352;2023-05-20T10:19:27;94923.06;;;20.56;50.07
56831;BME280;42713;42.676;23.352;2023-05-20T10:22:09;94920.25;;;20.61;48.89
56831;BME280;42713;42.676;23.352;2023-05-20T10:24:40;94926.06;;;20.63;48.82
56831;BME280;42713;42.676;23.352;2023-05-20T10:27:13;94927.84;;;20.68;48.56
56831;BME280;42713;42.676;23.352;2023-05-20T10:29:49;94922.13;;;20.75;47.70
56831;BME280;42713;42.676;23.352;2023-05-20T10:34:50;94924.38;;;20.81;45.76
56831;BME280;42713;42.676;23.352;2023-05-20T10:37:23;94912.81;;;20.86;45.58
56831;BME280;42713;42.676;23.352;2023-05-20T10:39:50;94910.50;;;20.93;45.70
56831;BME280;42713;42.676;23.352;2023-05-20T10:42:26;94893.31;;;20.99;44.80
56831;BME280;42713;42.676;23.352;2023-05-20T10:44:52;94894.16;;;21.09;44.53
56831;BME280;42713;42.676;23.352;2023-05-20T10:47:17;94900.56;;;21.08;44.60
56831;BME280;42713;42.676;23.352;2023-05-20T10:49:44;94888.38;;;21.15;44.71
56831;BME280;42713;42.676;23.352;2023-05-20T10:52:13;94885.94;;;21.28;43.30
56831;BME280;42713;42.676;23.352;2023-05-20T10:54:56;94896.19;;;21.35;43.02
56831;BME280;42713;42.676;23.352;2023-05-20T10:57:22;94890.75;;;21.49;43.30
56831;BME280;42713;42.676;23.352;2023-05-20T10:59:51;94888.91;;;21.58;43.06
56831;BME280;42713;42.676;23.352;2023-05-20T11:02:18;94880.50;;;21.65;41.50
56831;BME280;42713;42.676;23.352;2023-05-20T11:04:47;94878.81;;;21.86;41.60
56831;BME280;42713;42.676;23.352;2023-05-20T11:07:24;94863.03;;;22.07;41.02
56831;BME280;42713;42.676;23.352;2023-05-20T11:09:50;94869.94;;;22.35;40.32
56831;BME280;42713;42.676;23.352;2023-05-20T11:12:16;94868.84;;;22.53;39.76
56831;BME280;42713;42.676;23.352;2023-05-20T11:14:41;94866.81;;;22.59;40.11
56831;BME280;42713;42.676;23.352;2023-05-20T11:17:07;94868.53;;;22.64;40.11
56831;BME280;42713;42.676;23.352;2023-05-20T11:19:36;94866.63;;;22.73;40.74
56831;BME280;42713;42.676;23.352;2023-05-20T11:22:03;94870.25;;;22.77;40.70
56831;BME280;42713;42.676;23.352;2023-05-20T11:24:31;94859.44;;;22.65;40.85
56831;BME280;42713;42.676;23.352;2023-05-20T11:26:56;94857.72;;;22.69;41.55
56831;BME280;42713;42.676;23.352;2023-05-20T11:29:25;94850.31;;;22.66;41.78
56831;BME280;42713;42.676;23.352;2023-05-20T11:31:51;94848.63;;;22.52;42.28
56831;BME280;42713;42.676;23.352;2023-05-20T11:34:20;94837.16;;;22.52;42.52
56831;BME280;42713;42.676;23.352;2023-05-20T11:36:55;94837.78;;;22.49;41.76
56831;BME280;42713;42.676;23.352;2023-05-20T11:39:21;94837.16;;;22.43;41.55
56831;BME280;42713;42.676;23.352;2023-05-20T11:41:46;94826.66;;;22.47;42.14
56831;BME280;42713;42.676;23.352;2023-05-20T11:44:12;94828.84;;;22.45;41.48
56831;BME280;42713;42.676;23.352;2023-05-20T11:46:42;94834.19;;;22.45;40.53
56831;BME280;42713;42.676;23.352;2023-05-20T11:49:08;94832.59;;;22.44;41.22
56831;BME280;42713;42.676;23.352;2023-05-20T11:51:34;94821.13;;;22.34;42.41
56831;BME280;42713;42.676;23.352;2023-05-20T11:54:02;94816.25;;;22.28;42.10
56831;BME280;42713;42.676;23.352;2023-05-20T11:56:32;94831.66;;;22.31;42.04
56831;BME280;42713;42.676;23.352;2023-05-20T11:58:59;94826.94;;;22.45;41.14
56831;BME280;42713;42.676;23.352;2023-05-20T12:01:26;94823.94;;;22.56;41.92
56831;BME280;42713;42.676;23.352;2023-05-20T12:03:54;94813.72;;;22.75;41.65
56831;BME280;42713;42.676;23.352;2023-05-20T12:06:20;94821.53;;;22.98;41.56
56831;BME280;42713;42.676;23.352;2023-05-20T12:08:45;94812.19;;;23.13;41.40
56831;BME280;42713;42.676;23.352;2023-05-20T12:11:12;94811.09;;;23.14;41.79
56831;BME280;42713;42.676;23.352;2023-05-20T12:13:38;94811.25;;;23.09;40.69
56831;BME280;42713;42.676;23.352;2023-05-20T12:16:04;94809.41;;;23.00;40.74
56831;BME280;42713;42.676;23.352;2023-05-20T12:18:30;94802.69;;;22.85;40.84
56831;BME280;42713;42.676;23.352;2023-05-20T12:20:57;94809.03;;;22.72;41.66
56831;BME280;42713;42.676;23.352;2023-05-20T12:23:23;94824.56;;;22.61;40.94
56831;BME280;42713;42.676;23.352;2023-05-20T12:25:50;94833.38;;;22.53;41.06
56831;BME280;42713;42.676;23.352;2023-05-20T12:28:16;94845.47;;;22.42;41.36
56831;BME280;42713;42.676;23.352;2023-05-20T12:30:42;94847.19;;;22.37;41.51
56831;BME280;42713;42.676;23.352;2023-05-20T12:33:08;94865.09;;;22.28;40.67
56831;BME280;42713;42.676;23.352;2023-05-20T12:35:41;94854.69;;;22.09;40.11
56831;BME280;42713;42.676;23.352;2023-05-20T12:38:08;94862.97;;;21.90;40.78
56831;BME280;42713;42.676;23.352;2023-05-20T12:40:36;94860.63;;;21.80;41.08
56831;BME280;42713;42.676;23.352;2023-05-20T12:43:07;94871.56;;;21.69;41.23
56831;BME280;42713;42.676;23.352;2023-05-20T12:45:33;94872.09;;;21.57;39.95
56831;BME280;42713;42.676;23.352;2023-05-20T12:47:59;94866.44;;;21.50;40.09
56831;BME280;42713;42.676;23.352;2023-05-20T12:50:25;94869.88;;;21.42;39.85
56831;BME280;42713;42.676;23.352;2023-05-20T12:52:54;94872.66;;;21.37;39.82
56831;BME280;42713;42.676;23.352;2023-05-20T12:55:20;94862.97;;;21.41;39.93